sensor_id;sensor_type;location;lat;lon;timestamp;pressure;altitude;pressure_sealevel;temperature;humidity
25759;BME280;13604;52.496;13.456;2024-03-06T00:01:41;101499.59;;;-0.40;100.00
25759;BME280;13604;52.496;13.456;2024-03-06T00:04:07;101545.72;;;-0.23;100.00
25759;BME280;13604;52.496;13.456;2024-03-06T00:06:32;101584.16;;;-0.05;100.00
25759;BME280;13604;52.496;13.456;2024-03-06T00:08:58;101525.94;;;-0.41;100.00
25759;BME280;13604;52.496;13.456;2024-03-06T00:11:23;101537.88;;;-0.33;100.00
25759;BME280;13604;52.496;13.456;2024-03-06T00:13:48;101569.94;;;-0.28;100.00
25759;BME280;13604;52.496;13.456;2024-03-06T00:16:14;101506.84;;;-0.69;100.00
25759;BME280;13604;52.496;13.456;2024-03-06T00:18:39;101563.72;;;-0.39;100.00
25759;BME280;13604;52.496;13.456;2024-03-06T00:21:05;101568.13;;;-0.29;100.00
25759;BME280;13604;52.496;13.456;2024-03-06T00:23:30;101529.97;;;-0.52;100.00
25759;BME280;13604;52.496;13.456;2024-03-06T00:25:56;101571.41;;;-0.39;100.00
25759;BME280;13604;52.496;13.456;2024-03-06T00:28:21;101534.59;;;-0.57;100.00
25759;BME280;13604;52.496;13.456;2024-03-06T00:30:46;101589.81;;;-0.25;100.00
25759;BME280;13604;52.496;13.456;2024-03-06T00:33:12;101511.97;;;-0.69;100.00
25759;BME280;13604;52.496;13.456;2024-03-06T00:35:37;101569.72;;;-0.47;100.00
25759;BME280;13604;52.496;13.456;2024-03-06T00:38:02;101579.69;;;-0.41;100.00
25759;BME280;13604;52.496;13.456;2024-03-06T00:40:28;101532.88;;;-0.73;100.00
25759;BME280;13604;52.496;13.456;2024-03-06T00:42:57;101567.88;;;-0.57;100.00
25759;BME280;13604;52.496;13.456;2024-03-06T00:45:22;101574.34;;;-0.51;100.00
25759;BME280;13604;52.496;13.456;2024-03-06T00:47:48;101609.66;;;-0.31;100.00
25759;BME280;13604;52.496;13.456;2024-03-06T00:50:13;101616.44;;;-0.32;100.00
25759;BME280;13604;52.496;13.456;2024-03-06T00:52:38;101575.06;;;-0.61;100.00
25759;BME280;13604;52.496;13.456;2024-03-06T00:55:04;101594.50;;;-0.54;100.00
25759;BME280;13604;52.496;13.456;2024-03-06T00:57:30;101614.88;;;-0.47;100.00
25759;BME280;13604;52.496;13.456;2024-03-06T00:59:55;101613.22;;;-0.47;100.00
25759;BME280;13604;52.496;13.456;2024-03-06T01:02:21;101598.69;;;-0.64;100.00
25759;BME280;13604;52.496;13.456;2024-03-06T01:04:46;101613.03;;;-0.57;100.00
25759;BME280;13604;52.496;13.456;2024-03-06T01:07:11;101582.53;;;-0.71;100.00
25759;BME280;13604;52.496;13.456;2024-03-06T01:09:37;101597.03;;;-0.63;100.00
25759;BME280;13604;52.496;13.456;2024-03-06T01:12:02;101555.81;;;-0.91;100.00
25759;BME280;13604;52.496;13.456;2024-03-06T01:14:27;101600.78;;;-0.68;100.00
25759;BME280;13604;52.496;13.456;2024-03-06T01:16:53;101629.31;;;-0.48;100.00
25759;BME280;13604;52.496;13.456;2024-03-06T01:19:21;101596.84;;;-0.73;100.00
25759;BME280;13604;52.496;13.456;2024-03-06T01:21:46;101599.88;;;-0.69;100.00
25759;BME280;13604;52.496;13.456;2024-03-06T01:24:11;101597.00;;;-0.72;100.00
25759;BME280;13604;52.496;13.456;2024-03-06T01:26:37;101585.47;;;-0.84;100.00
25759;BME280;13604;52.496;13.456;2024-03-06T01:29:02;101638.31;;;-0.51;100.00
25759;BME280;13604;52.496;13.456;2024-03-06T01:31:27;101608.72;;;-0.74;100.00
25759;BME280;13604;52.496;13.456;2024-03-06T01:33:53;101645.28;;;-0.50;100.00
25759;BME280;13604;52.496;13.456;2024-03-06T01:36:18;101606.78;;;-0.68;100.00
25759;BME280;13604;52.496;13.456;2024-03-06T01:38:44;101623.22;;;-0.66;100.00
25759;BME280;13604;52.496;13.456;2024-03-06T01:41:11;101586.25;;;-0.85;100.00
25759;BME280;13604;52.496;13.456;2024-03-06T01:43:37;101618.22;;;-0.64;100.00
25759;BME280;13604;52.496;13.456;2024-03-06T01:46:04;101640.41;;;-0.56;100.00
25759;BME280;13604;52.496;13.456;2024-03-06T01:48:30;101641.75;;;-0.60;100.00
25759;BME280;13604;52.496;13.456;2024-03-06T01:50:57;101630.41;;;-0.70;100.00
25759;BME280;13604;52.496;13.456;2024-03-06T01:53:24;101602.97;;;-0.80;100.00
25759;BME280;13604;52.496;13.456;2024-03-06T01:55:50;101634.34;;;-0.65;100.00
25759;BME280;13604;52.496;13.456;2024-03-06T01:58:16;101633.47;;;-0.66;100.00
25759;BME280;13604;52.496;13.456;2024-03-06T02:00:42;101624.81;;;-0.75;100.00
25759;BME280;13604;52.496;13.456;2024-03-06T02:03:08;101646.69;;;-0.61;100.00
25759;BME280;13604;52.496;13.456;2024-03-06T02:05:34;101637.31;;;-0.69;100.00
25759;BME280;13604;52.496;13.456;2024-03-06T02:07:59;101651.81;;;-0.61;100.00
25759;BME280;13604;52.496;13.456;2024-03-06T02:10:26;101627.63;;;-0.81;100.00
25759;BME280;13604;52.496;13.456;2024-03-06T02:12:53;101601.09;;;-0.90;100.00
25759;BME280;13604;52.496;13.456;2024-03-06T02:15:18;101650.34;;;-0.59;100.00
25759;BME280;13604;52.496;13.456;2024-03-06T02:17:44;101639.63;;;-0.64;100.00
25759;BME280;13604;52.496;13.456;2024-03-06T02:20:09;101642.91;;;-0.65;100.00
25759;BME280;13604;52.496;13.456;2024-03-06T02:22:38;101631.88;;;-0.72;100.00
25759;BME280;13604;52.496;13.456;2024-03-06T02:25:03;101647.16;;;-0.65;100.00
25759;BME280;13604;52.496;13.456;2024-03-06T02:27:29;101616.78;;;-0.87;100.00
25759;BME280;13604;52.496;13.456;2024-03-06T02:29:55;101624.16;;;-0.81;100.00
25759;BME280;13604;52.496;13.456;2024-03-06T02:32:21;101655.38;;;-0.68;100.00
25759;BME280;13604;52.496;13.456;2024-03-06T02:34:46;101622.03;;;-0.85;100.00
25759;BME280;13604;52.496;13.456;2024-03-06T02:37:13;101661.31;;;-0.60;100.00
25759;BME280;13604;52.496;13.456;2024-03-06T02:39:38;101653.31;;;-0.63;100.00
25759;BME280;13604;52.496;13.456;2024-03-06T02:42:04;101651.94;;;-0.68;100.00
25759;BME280;13604;52.496;13.456;2024-03-06T02:44:29;101663.72;;;-0.62;100.00
25759;BME280;13604;52.496;13.456;2024-03-06T02:46:54;101665.22;;;-0.64;100.00
25759;BME280;13604;52.496;13.456;2024-03-06T02:49:20;101653.34;;;-0.79;100.00
25759;BME280;13604;52.496;13.456;2024-03-06T02:51:45;101636.47;;;-0.86;100.00
25759;BME280;13604;52.496;13.456;2024-03-06T02:54:11;101664.72;;;-0.68;100.00
25759;BME280;13604;52.496;13.456;2024-03-06T02:56:36;101661.97;;;-0.79;100.00
25759;BME280;13604;52.496;13.456;2024-03-06T02:59:01;101637.16;;;-0.96;100.00
25759;BME280;13604;52.496;13.456;2024-03-06T03:01:28;101652.66;;;-0.94;100.00
25759;BME280;13604;52.496;13.456;2024-03-06T03:03:54;101646.00;;;-1.01;100.00
25759;BME280;13604;52.496;13.456;2024-03-06T03:06:21;101672.44;;;-0.84;100.00
25759;BME280;13604;52.496;13.456;2024-03-06T03:08:46;101672.28;;;-0.86;100.00
25759;BME280;13604;52.496;13.456;2024-03-06T03:11:12;101637.03;;;-1.13;100.00
25759;BME280;13604;52.496;13.456;2024-03-06T03:13:37;101670.31;;;-0.88;100.00
25759;BME280;13604;52.496;13.456;2024-03-06T03:16:03;101652.09;;;-1.07;100.00
25759;BME280;13604;52.496;13.456;2024-03-06T03:18:59;101682.16;;;-0.89;100.00
25759;BME280;13604;52.496;13.456;2024-03-06T03:21:26;101664.50;;;-1.03;100.00
25759;BME280;13604;52.496;13.456;2024-03-06T03:23:51;101701.25;;;-0.94;100.00
25759;BME280;13604;52.496;13.456;2024-03-06T03:26:17;101696.44;;;-0.91;100.00
25759;BME280;13604;52.496;13.456;2024-03-06T03:28:42;101698.28;;;-0.90;100.00
25759;BME280;13604;52.496;13.456;2024-03-06T03:31:08;101701.06;;;-0.96;100.00
25759;BME280;13604;52.496;13.456;2024-03-06T03:33:34;101678.72;;;-1.05;100.00
25759;BME280;13604;52.496;13.456;2024-03-06T03:36:01;101654.28;;;-1.19;100.00
25759;BME280;13604;52.496;13.456;2024-03-06T03:38:26;101683.72;;;-1.07;100.00
25759;BME280;13604;52.496;13.456;2024-03-06T03:40:52;101674.06;;;-1.09;100.00
25759;BME280;13604;52.496;13.456;2024-03-06T03:43:17;101673.88;;;-1.11;100.00
25759;BME280;13604;52.496;13.456;2024-03-06T03:45:42;101705.78;;;-0.91;100.00
25759;BME280;13604;52.496;13.456;2024-03-06T03:48:08;101699.34;;;-1.04;100.00
25759;BME280;13604;52.496;13.456;2024-03-06T03:50:33;101701.34;;;-1.01;100.00
25759;BME280;13604;52.496;13.456;2024-03-06T03:52:58;101700.63;;;-1.00;100.00
25759;BME280;13604;52.496;13.456;2024-03-06T03:55:26;101699.50;;;-1.02;100.00
25759;BME280;13604;52.496;13.456;2024-03-06T03:57:51;101715.69;;;-0.95;100.00
25759;BME280;13604;52.496;13.456;2024-03-06T04:00:17;101693.63;;;-1.10;100.00
25759;BME280;13604;52.496;13.456;2024-03-06T04:02:43;101676.56;;;-1.18;100.00
25759;BME280;13604;52.496;13.456;2024-03-06T04:05:08;101689.16;;;-1.20;100.00
25759;BME280;13604;52.496;13.456;2024-03-06T04:07:35;101707.47;;;-1.08;100.00
25759;BME280;13604;52.496;13.456;2024-03-06T04:10:01;101717.25;;;-1.04;100.00
25759;BME280;13604;52.496;13.456;2024-03-06T04:12:27;101710.56;;;-1.11;100.00
25759;BME280;13604;52.496;13.456;2024-03-06T04:14:52;101722.06;;;-1.07;100.00
25759;BME280;13604;52.496;13.456;2024-03-06T04:17:17;101699.13;;;-1.30;100.00
25759;BME280;13604;52.496;13.456;2024-03-06T04:19:42;101687.28;;;-1.30;100.00
25759;BME280;13604;52.496;13.456;2024-03-06T04:22:08;101724.28;;;-1.10;100.00
25759;BME280;13604;52.496;13.456;2024-03-06T04:24:33;101712.50;;;-1.17;100.00
25759;BME280;13604;52.496;13.456;2024-03-06T04:26:58;101725.75;;;-1.12;100.00
25759;BME280;13604;52.496;13.456;2024-03-06T04:29:24;101683.88;;;-1.37;100.00
25759;BME280;13604;52.496;13.456;2024-03-06T04:31:49;101713.97;;;-1.19;100.00
25759;BME280;13604;52.496;13.456;2024-03-06T04:34:14;101700.94;;;-1.29;100.00
25759;BME280;13604;52.496;13.456;2024-03-06T04:36:39;101726.41;;;-1.22;100.00
25759;BME280;13604;52.496;13.456;2024-03-06T04:39:05;101723.78;;;-1.15;100.00
25759;BME280;13604;52.496;13.456;2024-03-06T04:41:33;101712.06;;;-1.28;100.00
25759;BME280;13604;52.496;13.456;2024-03-06T04:43:58;101704.09;;;-1.32;100.00
25759;BME280;13604;52.496;13.456;2024-03-06T04:46:25;101694.09;;;-1.37;100.00
25759;BME280;13604;52.496;13.456;2024-03-06T04:48:51;101675.72;;;-1.42;100.00
25759;BME280;13604;52.496;13.456;2024-03-06T04:51:16;101702.19;;;-1.25;100.00
25759;BME280;13604;52.496;13.456;2024-03-06T04:53:41;101739.19;;;-1.06;100.00
25759;BME280;13604;52.496;13.456;2024-03-06T04:56:07;101735.91;;;-1.05;100.00
25759;BME280;13604;52.496;13.456;2024-03-06T04:58:32;101744.91;;;-1.08;100.00
25759;BME280;13604;52.496;13.456;2024-03-06T05:00:58;101715.72;;;-1.26;100.00
25759;BME280;13604;52.496;13.456;2024-03-06T05:03:23;101730.47;;;-1.24;100.00
25759;BME280;13604;52.496;13.456;2024-03-06T05:05:48;101749.84;;;-1.10;100.00
25759;BME280;13604;52.496;13.456;2024-03-06T05:08:13;101728.13;;;-1.14;100.00
25759;BME280;13604;52.496;13.456;2024-03-06T05:10:39;101716.34;;;-1.20;100.00
25759;BME280;13604;52.496;13.456;2024-03-06T05:13:05;101750.31;;;-1.05;100.00
25759;BME280;13604;52.496;13.456;2024-03-06T05:15:30;101752.16;;;-1.04;100.00
25759;BME280;13604;52.496;13.456;2024-03-06T05:17:56;101763.03;;;-0.98;100.00
25759;BME280;13604;52.496;13.456;2024-03-06T05:20:21;101747.38;;;-1.01;100.00
25759;BME280;13604;52.496;13.456;2024-03-06T05:22:46;101738.53;;;-1.12;100.00
25759;BME280;13604;52.496;13.456;2024-03-06T05:25:12;101744.47;;;-1.04;100.00
25759;BME280;13604;52.496;13.456;2024-03-06T05:27:37;101748.38;;;-1.08;100.00
25759;BME280;13604;52.496;13.456;2024-03-06T05:30:02;101735.19;;;-1.20;100.00
25759;BME280;13604;52.496;13.456;2024-03-06T05:32:30;101748.28;;;-1.17;100.00
25759;BME280;13604;52.496;13.456;2024-03-06T05:34:55;101769.31;;;-1.19;100.00
25759;BME280;13604;52.496;13.456;2024-03-06T05:37:23;101771.47;;;-1.15;100.00
25759;BME280;13604;52.496;13.456;2024-03-06T05:39:48;101764.91;;;-1.20;100.00
25759;BME280;13604;52.496;13.456;2024-03-06T05:42:13;101798.06;;;-0.97;100.00
25759;BME280;13604;52.496;13.456;2024-03-06T05:44:39;101775.25;;;-1.12;100.00
25759;BME280;13604;52.496;13.456;2024-03-06T05:47:04;101794.56;;;-1.06;100.00
25759;BME280;13604;52.496;13.456;2024-03-06T05:49:30;101798.50;;;-1.01;100.00
25759;BME280;13604;52.496;13.456;2024-03-06T05:51:57;101796.50;;;-1.04;100.00
25759;BME280;13604;52.496;13.456;2024-03-06T05:54:23;101773.09;;;-1.16;100.00
25759;BME280;13604;52.496;13.456;2024-03-06T05:56:50;101814.09;;;-0.91;100.00
25759;BME280;13604;52.496;13.456;2024-03-06T05:59:16;101817.00;;;-0.88;100.00
25759;BME280;13604;52.496;13.456;2024-03-06T06:01:41;101818.22;;;-0.84;100.00
25759;BME280;13604;52.496;13.456;2024-03-06T06:04:08;101795.06;;;-1.02;100.00
25759;BME280;13604;52.496;13.456;2024-03-06T06:06:34;101816.22;;;-0.71;100.00
25759;BME280;13604;52.496;13.456;2024-03-06T06:08:59;101807.81;;;-0.54;100.00
25759;BME280;13604;52.496;13.456;2024-03-06T06:11:25;101820.00;;;-0.51;100.00
25759;BME280;13604;52.496;13.456;2024-03-06T06:13:50;101821.56;;;-0.45;100.00
25759;BME280;13604;52.496;13.456;2024-03-06T06:16:15;101828.09;;;-0.40;100.00
25759;BME280;13604;52.496;13.456;2024-03-06T06:18:41;101832.63;;;-0.37;100.00
25759;BME280;13604;52.496;13.456;2024-03-06T06:21:07;101838.56;;;-0.29;100.00
25759;BME280;13604;52.496;13.456;2024-03-06T06:23:33;101817.94;;;-0.47;100.00
25759;BME280;13604;52.496;13.456;2024-03-06T06:25:58;101799.13;;;-0.47;100.00
25759;BME280;13604;52.496;13.456;2024-03-06T06:28:24;101817.78;;;-0.32;100.00
25759;BME280;13604;52.496;13.456;2024-03-06T06:30:49;101827.81;;;-0.18;100.00
25759;BME280;13604;52.496;13.456;2024-03-06T06:33:17;101826.41;;;0.02;100.00
25759;BME280;13604;52.496;13.456;2024-03-06T06:35:42;101857.53;;;0.38;100.00
25759;BME280;13604;52.496;13.456;2024-03-06T06:38:08;101828.81;;;0.49;100.00
25759;BME280;13604;52.496;13.456;2024-03-06T06:40:33;101845.34;;;0.86;100.00
25759;BME280;13604;52.496;13.456;2024-03-06T06:42:58;101806.31;;;0.89;100.00
25759;BME280;13604;52.496;13.456;2024-03-06T06:45:24;101844.72;;;1.40;100.00
25759;BME280;13604;52.496;13.456;2024-03-06T06:47:50;101856.38;;;1.71;100.00
25759;BME280;13604;52.496;13.456;2024-03-06T06:50:16;101817.81;;;1.80;100.00
25759;BME280;13604;52.496;13.456;2024-03-06T06:52:42;101830.63;;;2.06;100.00
25759;BME280;13604;52.496;13.456;2024-03-06T06:55:08;101846.06;;;2.51;100.00
25759;BME280;13604;52.496;13.456;2024-03-06T06:57:37;101853.59;;;2.95;100.00
25759;BME280;13604;52.496;13.456;2024-03-06T07:00:03;101808.13;;;3.04;100.00
25759;BME280;13604;52.496;13.456;2024-03-06T07:02:39;101874.41;;;3.73;100.00
25759;BME280;13604;52.496;13.456;2024-03-06T07:05:05;101819.06;;;3.59;100.00
25759;BME280;13604;52.496;13.456;2024-03-06T07:07:30;101878.63;;;4.10;100.00
25759;BME280;13604;52.496;13.456;2024-03-06T07:09:56;101863.50;;;4.34;100.00
25759;BME280;13604;52.496;13.456;2024-03-06T07:12:24;101857.44;;;4.63;100.00
25759;BME280;13604;52.496;13.456;2024-03-06T07:14:50;101865.25;;;4.93;100.00
25759;BME280;13604;52.496;13.456;2024-03-06T07:17:15;101879.56;;;5.31;100.00
25759;BME280;13604;52.496;13.456;2024-03-06T07:19:40;101845.09;;;5.30;100.00
25759;BME280;13604;52.496;13.456;2024-03-06T07:22:06;101880.19;;;5.80;100.00
25759;BME280;13604;52.496;13.456;2024-03-06T07:24:31;101859.38;;;5.78;100.00
25759;BME280;13604;52.496;13.456;2024-03-06T07:26:56;101869.13;;;6.23;100.00
25759;BME280;13604;52.496;13.456;2024-03-06T07:29:22;101888.91;;;6.55;100.00
25759;BME280;13604;52.496;13.456;2024-03-06T07:31:47;101875.44;;;6.81;97.12
25759;BME280;13604;52.496;13.456;2024-03-06T07:34:13;101901.31;;;7.04;97.57
25759;BME280;13604;52.496;13.456;2024-03-06T07:36:39;101868.19;;;6.99;95.03
25759;BME280;13604;52.496;13.456;2024-03-06T07:39:04;101858.34;;;7.17;91.95
25759;BME280;13604;52.496;13.456;2024-03-06T07:41:30;101893.81;;;7.52;89.72
25759;BME280;13604;52.496;13.456;2024-03-06T07:43:58;101896.78;;;7.81;85.00
25759;BME280;13604;52.496;13.456;2024-03-06T07:46:23;101892.28;;;8.02;81.01
25759;BME280;13604;52.496;13.456;2024-03-06T07:48:48;101861.50;;;7.95;77.59
25759;BME280;13604;52.496;13.456;2024-03-06T07:51:14;101896.56;;;8.48;74.33
25759;BME280;13604;52.496;13.456;2024-03-06T07:53:39;101883.00;;;8.64;73.02
25759;BME280;13604;52.496;13.456;2024-03-06T07:56:05;101902.94;;;8.77;70.38
25759;BME280;13604;52.496;13.456;2024-03-06T07:58:30;101902.34;;;8.93;70.34
25759;BME280;13604;52.496;13.456;2024-03-06T08:00:56;101883.66;;;9.24;68.55
25759;BME280;13604;52.496;13.456;2024-03-06T08:03:22;101909.38;;;9.58;67.43
25759;BME280;13604;52.496;13.456;2024-03-06T08:05:51;101910.47;;;9.62;66.26
25759;BME280;13604;52.496;13.456;2024-03-06T08:08:17;101905.53;;;9.91;64.94
25759;BME280;13604;52.496;13.456;2024-03-06T08:10:43;101907.75;;;9.85;63.55
25759;BME280;13604;52.496;13.456;2024-03-06T08:13:09;101923.59;;;9.63;63.29
25759;BME280;13604;52.496;13.456;2024-03-06T08:15:35;101917.38;;;9.48;65.07
25759;BME280;13604;52.496;13.456;2024-03-06T08:18:00;101901.22;;;9.40;65.01
25759;BME280;13604;52.496;13.456;2024-03-06T08:20:25;101924.91;;;9.70;65.20
25759;BME280;13604;52.496;13.456;2024-03-06T08:22:52;101924.91;;;9.70;64.49
25759;BME280;13604;52.496;13.456;2024-03-06T08:25:18;101908.56;;;9.46;64.81
25759;BME280;13604;52.496;13.456;2024-03-06T08:27:43;101892.06;;;9.58;64.13
25759;BME280;13604;52.496;13.456;2024-03-06T08:30:09;101905.69;;;9.68;63.81
25759;BME280;13604;52.496;13.456;2024-03-06T08:32:35;101929.88;;;10.05;63.43
25759;BME280;13604;52.496;13.456;2024-03-06T08:35:02;101934.22;;;10.45;62.19
25759;BME280;13604;52.496;13.456;2024-03-06T08:42:18;101941.81;;;11.53;nan
25759;BME280;13604;52.496;13.456;2024-03-06T08:44:44;101991.91;;;11.76;nan
25759;BME280;13604;52.496;13.456;2024-03-06T08:47:09;101945.13;;;12.24;nan
25759;BME280;13604;52.496;13.456;2024-03-06T08:49:34;101948.28;;;12.81;nan
25759;BME280;13604;52.496;13.456;2024-03-06T08:52:00;101957.91;;;12.97;nan
25759;BME280;13604;52.496;13.456;2024-03-06T08:54:25;101928.81;;;13.07;nan
25759;BME280;13604;52.496;13.456;2024-03-06T08:56:50;101939.56;;;14.13;nan
25759;BME280;13604;52.496;13.456;2024-03-06T08:59:18;101938.75;;;14.68;nan
25759;BME280;13604;52.496;13.456;2024-03-06T09:02:34;101943.34;;;15.70;44.71
25759;BME280;13604;52.496;13.456;2024-03-06T09:04:59;101945.44;;;16.19;43.71
25759;BME280;13604;52.496;13.456;2024-03-06T09:07:24;101962.91;;;16.61;41.53
25759;BME280;13604;52.496;13.456;2024-03-06T09:09:50;101957.63;;;17.29;40.68
25759;BME280;13604;52.496;13.456;2024-03-06T09:12:17;101949.25;;;17.89;38.75
25759;BME280;13604;52.496;13.456;2024-03-06T09:14:43;101949.16;;;18.39;37.99
25759;BME280;13604;52.496;13.456;2024-03-06T09:17:09;101966.41;;;18.56;37.17
25759;BME280;13604;52.496;13.456;2024-03-06T09:19:35;101821.84;;;18.45;36.51
25759;BME280;13604;52.496;13.456;2024-03-06T09:22:00;101934.72;;;19.76;35.66
25759;BME280;13604;52.496;13.456;2024-03-06T09:24:26;101951.38;;;20.07;34.31
25759;BME280;13604;52.496;13.456;2024-03-06T09:26:52;101962.22;;;20.54;33.82
25759;BME280;13604;52.496;13.456;2024-03-06T09:29:17;101958.09;;;20.64;33.11
25759;BME280;13604;52.496;13.456;2024-03-06T09:31:43;101965.19;;;19.03;34.75
25759;BME280;13604;52.496;13.456;2024-03-06T09:34:08;101970.69;;;17.50;36.47
25759;BME280;13604;52.496;13.456;2024-03-06T09:36:40;101971.47;;;15.92;40.03
25759;BME280;13604;52.496;13.456;2024-03-06T09:39:10;101963.59;;;14.05;42.61
25759;BME280;13604;52.496;13.456;2024-03-06T09:41:35;101993.31;;;12.75;45.13
25759;BME280;13604;52.496;13.456;2024-03-06T09:44:00;102068.78;;;12.24;47.78
25759;BME280;13604;52.496;13.456;2024-03-06T09:46:26;101968.88;;;11.40;50.15
25759;BME280;13604;52.496;13.456;2024-03-06T09:48:53;101936.41;;;13.02;48.59
25759;BME280;13604;52.496;13.456;2024-03-06T09:51:19;102061.59;;;16.11;43.62
25759;BME280;13604;52.496;13.456;2024-03-06T09:53:46;101964.88;;;17.12;38.76
25759;BME280;13604;52.496;13.456;2024-03-06T09:56:14;101965.25;;;16.76;38.72
25759;BME280;13604;52.496;13.456;2024-03-06T09:58:40;101972.47;;;17.75;36.31
25759;BME280;13604;52.496;13.456;2024-03-06T10:01:05;101964.63;;;18.02;35.44
25759;BME280;13604;52.496;13.456;2024-03-06T10:03:36;101975.94;;;18.80;35.10
25759;BME280;13604;52.496;13.456;2024-03-06T10:06:02;101976.00;;;20.39;34.40
25759;BME280;13604;52.496;13.456;2024-03-06T10:08:27;101964.72;;;21.70;31.94
25759;BME280;13604;52.496;13.456;2024-03-06T10:10:53;101980.44;;;23.24;30.18
25759;BME280;13604;52.496;13.456;2024-03-06T10:13:23;101986.41;;;23.83;28.20
25759;BME280;13604;52.496;13.456;2024-03-06T10:16:00;101986.41;;;24.92;27.20
25759;BME280;13604;52.496;13.456;2024-03-06T10:18:27;101976.91;;;25.45;26.55
25759;BME280;13604;52.496;13.456;2024-03-06T10:20:53;101987.63;;;24.19;26.18
25759;BME280;13604;52.496;13.456;2024-03-06T10:23:19;101989.66;;;22.30;28.54
25759;BME280;13604;52.496;13.456;2024-03-06T10:25:44;101974.06;;;19.67;31.52
25759;BME280;13604;52.496;13.456;2024-03-06T10:28:11;101994.28;;;17.47;35.55
25759;BME280;13604;52.496;13.456;2024-03-06T10:30:37;102007.09;;;15.86;38.10
25759;BME280;13604;52.496;13.456;2024-03-06T10:33:04;102001.56;;;14.85;39.90
25759;BME280;13604;52.496;13.456;2024-03-06T10:35:30;101999.03;;;13.98;42.60
25759;BME280;13604;52.496;13.456;2024-03-06T10:37:56;102001.44;;;13.77;42.18
25759;BME280;13604;52.496;13.456;2024-03-06T10:40:25;101967.69;;;13.49;43.43
25759;BME280;13604;52.496;13.456;2024-03-06T10:42:55;101988.41;;;12.50;45.16
25759;BME280;13604;52.496;13.456;2024-03-06T10:45:23;101981.22;;;12.01;46.75
25759;BME280;13604;52.496;13.456;2024-03-06T10:47:52;101996.91;;;12.01;47.67
25759;BME280;13604;52.496;13.456;2024-03-06T10:50:18;101985.75;;;11.75;47.20
25759;BME280;13604;52.496;13.456;2024-03-06T10:52:44;101971.78;;;13.94;43.84
25759;BME280;13604;52.496;13.456;2024-03-06T10:55:12;101990.41;;;16.69;38.45
25759;BME280;13604;52.496;13.456;2024-03-06T10:57:39;101978.91;;;19.50;33.74
25759;BME280;13604;52.496;13.456;2024-03-06T11:02:31;101974.16;;;22.58;nan
25759;BME280;13604;52.496;13.456;2024-03-06T11:04:58;101984.13;;;24.23;nan
25759;BME280;13604;52.496;13.456;2024-03-06T11:07:23;101973.44;;;21.66;nan
25759;BME280;13604;52.496;13.456;2024-03-06T11:09:50;101975.75;;;19.03;nan
25759;BME280;13604;52.496;13.456;2024-03-06T11:12:35;101990.94;;;16.40;nan
25759;BME280;13604;52.496;13.456;2024-03-06T11:15:00;101976.19;;;14.84;nan
25759;BME280;13604;52.496;13.456;2024-03-06T11:17:33;101979.44;;;13.73;nan
25759;BME280;13604;52.496;13.456;2024-03-06T11:39:03;101962.25;;;28.79;nan
25759;BME280;13604;52.496;13.456;2024-03-06T11:41:30;101960.72;;;29.33;nan
25759;BME280;13604;52.496;13.456;2024-03-06T11:43:59;101974.19;;;28.48;nan
25759;BME280;13604;52.496;13.456;2024-03-06T11:47:05;101973.41;;;26.88;nan
25759;BME280;13604;52.496;13.456;2024-03-06T11:49:34;101978.59;;;27.31;nan
25759;BME280;13604;52.496;13.456;2024-03-06T11:52:01;101963.41;;;27.33;nan
25759;BME280;13604;52.496;13.456;2024-03-06T11:54:27;101975.91;;;28.52;nan
25759;BME280;13604;52.496;13.456;2024-03-06T11:56:55;101974.53;;;28.99;nan
25759;BME280;13604;52.496;13.456;2024-03-06T11:59:24;101955.56;;;26.93;nan
25759;BME280;13604;52.496;13.456;2024-03-06T12:02:36;101952.72;;;22.44;25.63
25759;BME280;13604;52.496;13.456;2024-03-06T12:05:02;101974.50;;;19.49;28.79
25759;BME280;13604;52.496;13.456;2024-03-06T12:07:28;101974.41;;;17.81;31.71
25759;BME280;13604;52.496;13.456;2024-03-06T12:09:53;101972.13;;;18.16;32.23
25759;BME280;13604;52.496;13.456;2024-03-06T12:12:18;101953.50;;;17.36;33.33
25759;BME280;13604;52.496;13.456;2024-03-06T12:14:56;101983.69;;;15.92;35.51
25759;BME280;13604;52.496;13.456;2024-03-06T12:17:44;101979.13;;;14.54;38.59
25759;BME280;13604;52.496;13.456;2024-03-06T12:20:14;101970.59;;;15.14;38.07
25759;BME280;13604;52.496;13.456;2024-03-06T12:22:59;101971.25;;;16.95;36.59
25759;BME280;13604;52.496;13.456;2024-03-06T12:25:25;101964.09;;;18.94;33.69
25759;BME280;13604;52.496;13.456;2024-03-06T12:27:53;101965.41;;;19.09;32.72
25759;BME280;13604;52.496;13.456;2024-03-06T12:30:22;101926.69;;;21.24;29.16
25759;BME280;13604;52.496;13.456;2024-03-06T12:32:59;101921.91;;;21.06;27.86
25759;BME280;13604;52.496;13.456;2024-03-06T12:35:29;101952.66;;;19.24;29.91
25759;BME280;13604;52.496;13.456;2024-03-06T12:37:54;101969.47;;;17.40;32.70
25759;BME280;13604;52.496;13.456;2024-03-06T12:40:20;101966.06;;;15.70;35.47
25759;BME280;13604;52.496;13.456;2024-03-06T12:45:12;101952.88;;;13.49;nan
25759;BME280;13604;52.496;13.456;2024-03-06T12:47:41;101962.34;;;13.14;nan
25759;BME280;13604;52.496;13.456;2024-03-06T12:50:07;101912.69;;;15.50;nan
25759;BME280;13604;52.496;13.456;2024-03-06T12:52:33;101928.66;;;15.15;nan
25759;BME280;13604;52.496;13.456;2024-03-06T12:54:59;101938.38;;;14.43;nan
25759;BME280;13604;52.496;13.456;2024-03-06T12:57:24;101965.00;;;13.98;nan
25759;BME280;13604;52.496;13.456;2024-03-06T12:59:50;101964.94;;;12.98;nan
25759;BME280;13604;52.496;13.456;2024-03-06T13:02:35;101967.50;;;13.13;42.77
25759;BME280;13604;52.496;13.456;2024-03-06T13:05:00;101884.75;;;12.98;42.48